首页
METAR-TAF:

METAR-TAF

机场 :

奥尔良, 法国

纬度: 47-59N, 经度: 001-45E, 海拔: 126米

当前天气观测

该预报发布于28分钟前的06:30 UTC
风速5节,风向东转东南
温度 5°C
湿度 93%
气压 1009 hPa
能见度10公里或以上
阴天层高于3100英尺

METAR: LFOJ 170630Z AUTO 11005KT 9999 OVC031 05/04 Q1009

时间: 07:58 (06:58 UTC)

预报

该预报发布于16小时和58分钟前的14:00 UTC
预报有效从16日的 15点(UTC)到 17日的 15点(UTC)
风速8节,风向南转南东
能见度10公里或以上
阴天层高于900英尺
成为
从 17日的 02点(UTC)到 17日的 04点(UTC)
能見度: 3500
多云层高于400英尺
毛毛雨
成为
从 17日的 11点(UTC)到 17日的 13点(UTC)
能見度: 9000
多云层高于1000英尺

TAF: LFOJ 161400Z 1615/1715 15008KT 9999 OVC009 BECMG 1702/1704 3500 DZ BKN004 BECMG 1711/1713 9000 NSW BKN010

超过4000个机场的气象观测和天气预报(METAR&TAF报告)。

可查询的气象台以黄色和红色小点在地图上表示。

将鼠标移到小点上方,可查看气象台名称。

然后点击查看天气观测和预报。

如需切换地图:点击带黑十字的绿色按钮放大地图;点击带横线的绿色按钮缩小地图;或者点击绿色箭头查看邻近地区的地图。


METAR-TAF: